createdAt,value
2022-11-07T00:01:40.836Z,100546.63
2022-11-07T00:06:43.467Z,100551.16
2022-11-07T00:11:46.425Z,100558.03
2022-11-07T00:16:49.496Z,100547.38
2022-11-07T00:21:51.849Z,100566.28
2022-11-07T00:26:54.479Z,100570.22
2022-11-07T00:31:56.928Z,100560.50
2022-11-07T00:36:59.233Z,100575.44
2022-11-07T00:42:01.596Z,100559.25
2022-11-07T00:47:03.943Z,100554.84
2022-11-07T00:52:06.113Z,100534.72
2022-11-07T00:57:08.313Z,100534.72
2022-11-07T01:02:10.589Z,100556.97
2022-11-07T01:07:13.051Z,100566.53
2022-11-07T01:12:15.331Z,100549.50
2022-11-07T01:17:17.685Z,100563.38
2022-11-07T01:22:19.921Z,100568.38
2022-11-07T01:27:22.108Z,100545.09
2022-11-07T01:32:24.363Z,100576.66
2022-11-07T01:37:26.569Z,100581.16
2022-11-07T01:42:28.748Z,100574.09
2022-11-07T01:47:36.396Z,100575.16
2022-11-07T01:52:42.379Z,100582.41
2022-11-07T01:57:58.301Z,100610.47
2022-11-07T02:03:06.106Z,100593.38
2022-11-07T02:08:09.807Z,100606.09
2022-11-07T02:13:20.661Z,100599.28
2022-11-07T02:18:23.619Z,100618.38
2022-11-07T02:23:35.038Z,100589.38
2022-11-07T02:28:39.133Z,100606.44
2022-11-07T02:33:42.288Z,100608.06
2022-11-07T02:38:47.086Z,100653.47
2022-11-07T02:43:53.701Z,100642.44
2022-11-07T02:48:58.678Z,100644.75
2022-11-07T02:54:01.050Z,100649.50
2022-11-07T02:59:03.563Z,100619.94
2022-11-07T03:04:05.760Z,100617.81
2022-11-07T03:09:08.616Z,100632.50
2022-11-07T03:14:10.804Z,100645.38
2022-11-07T03:19:12.949Z,100653.00
2022-11-07T03:24:15.302Z,100669.66
2022-11-07T03:29:17.607Z,100635.16
2022-11-07T03:34:19.797Z,100657.63
2022-11-07T03:39:25.845Z,100650.88
2022-11-07T03:44:28.319Z,100669.34
2022-11-07T03:49:30.656Z,100663.22
2022-11-07T03:54:32.968Z,100666.22
2022-11-07T03:59:35.187Z,100693.94
2022-11-07T04:04:37.394Z,100681.63
2022-11-07T04:09:39.585Z,100709.59
2022-11-07T04:15:00.260Z,100685.72
2022-11-07T04:20:02.531Z,100699.16
2022-11-07T04:25:05.682Z,100724.66
2022-11-07T04:30:20.444Z,100698.34
2022-11-07T04:35:28.185Z,100744.06
2022-11-07T04:40:31.011Z,100744.63
2022-11-07T04:45:33.302Z,100737.53
2022-11-07T04:50:35.501Z,100747.47
2022-11-07T04:55:37.651Z,100738.13
2022-11-07T05:00:39.890Z,100737.66
2022-11-07T05:05:42.110Z,100750.75
2022-11-07T05:10:44.398Z,100777.78
2022-11-07T05:15:46.702Z,100758.16
2022-11-07T05:20:48.917Z,100760.28
2022-11-07T05:25:55.201Z,100797.91
2022-11-07T05:31:02.609Z,100770.19
2022-11-07T05:36:14.053Z,100803.09
2022-11-07T05:41:18.180Z,100808.47
2022-11-07T05:46:20.447Z,100791.34
2022-11-07T05:51:22.785Z,100830.50
2022-11-07T05:56:25.122Z,100813.91
2022-11-07T06:01:27.395Z,100797.72
2022-11-07T06:06:29.761Z,100815.81
2022-11-07T06:11:33.440Z,100837.91
2022-11-07T06:16:35.765Z,100814.16
2022-11-07T06:21:38.024Z,100839.81
2022-11-07T06:26:40.502Z,100844.94
2022-11-07T06:31:42.999Z,100822.50
2022-11-07T06:36:50.694Z,100829.94
2022-11-07T06:41:58.804Z,100862.31
2022-11-07T06:47:01.015Z,100842.16
2022-11-07T06:52:03.285Z,100873.94
2022-11-07T06:57:05.690Z,100868.97
2022-11-07T07:02:21.724Z,100905.47
2022-11-07T07:07:35.029Z,100876.88
2022-11-07T07:12:37.410Z,100901.31
2022-11-07T07:17:39.875Z,100882.47
2022-11-07T07:22:42.268Z,100886.69
2022-11-07T07:27:45.042Z,100833.88
2022-11-07T07:32:47.264Z,100894.72
2022-11-07T07:37:52.983Z,100895.13
2022-11-07T07:42:55.159Z,100917.25
2022-11-07T07:48:03.600Z,100899.53
2022-11-07T07:53:09.041Z,100894.38
2022-11-07T07:58:12.583Z,100907.50
2022-11-07T08:03:15.397Z,100903.97
2022-11-07T08:08:17.853Z,100883.41
2022-11-07T08:13:22.384Z,100928.75
2022-11-07T08:18:25.350Z,100905.03
2022-11-07T08:23:27.544Z,100890.91
2022-11-07T08:28:32.153Z,100912.28
2022-11-07T08:33:35.247Z,100891.03
2022-11-07T08:38:37.728Z,100917.78
2022-11-07T08:43:39.915Z,100914.44
2022-11-07T08:48:42.452Z,100922.69
2022-11-07T08:53:44.672Z,100915.41
2022-11-07T08:58:46.993Z,100940.97
2022-11-07T09:03:55.108Z,100915.75
2022-11-07T09:09:00.631Z,100916.47
2022-11-07T09:14:02.916Z,100939.47
2022-11-07T09:19:05.187Z,100945.28
2022-11-07T09:24:08.628Z,100945.88
2022-11-07T09:29:10.835Z,100910.91
2022-11-07T09:34:13.200Z,100892.72
2022-11-07T09:39:15.391Z,100879.75
2022-11-07T09:44:20.336Z,100935.41
2022-11-07T09:49:46.824Z,100931.19
2022-11-07T09:55:07.727Z,100926.03
2022-11-07T10:00:19.375Z,100910.09
2022-11-07T10:05:42.748Z,100918.88
2022-11-07T10:11:01.542Z,100899.22
2022-11-07T10:16:19.221Z,100892.38
2022-11-07T10:21:53.312Z,100894.03
2022-11-07T10:26:58.718Z,100905.34
2022-11-07T10:32:08.380Z,100894.03
2022-11-07T10:37:10.881Z,100903.75
2022-11-07T10:42:26.968Z,100867.63
2022-11-07T10:47:29.271Z,100892.56
2022-11-07T10:52:31.480Z,100854.19
2022-11-07T10:57:35.758Z,100848.78
2022-11-07T11:02:50.082Z,100838.25
2022-11-07T11:07:54.914Z,100875.44
2022-11-07T11:12:57.333Z,100874.38
2022-11-07T11:18:03.403Z,100875.44
2022-11-07T11:23:19.308Z,100866.81
2022-11-07T11:28:33.580Z,100859.50
2022-11-07T11:33:43.424Z,100846.41
2022-11-07T11:38:56.204Z,100841.81
2022-11-07T11:44:04.553Z,100833.94
2022-11-07T11:49:12.480Z,100848.16
2022-11-07T11:54:16.583Z,100820.97
2022-11-07T11:59:37.036Z,100835.28
2022-11-07T12:05:02.228Z,100833.75
2022-11-07T12:10:13.640Z,100816.50
2022-11-07T12:15:24.980Z,100838.56
2022-11-07T12:20:33.066Z,100828.50
2022-11-07T12:25:53.022Z,100825.31
2022-11-07T12:31:10.277Z,100833.06
2022-11-07T12:36:43.901Z,100838.50
2022-11-07T12:42:30.754Z,100823.31
2022-11-07T12:48:15.806Z,100838.81
2022-11-07T12:53:20.843Z,100842.38
2022-11-07T12:58:26.569Z,100842.56
2022-11-07T13:03:43.226Z,100830.44
2022-11-07T13:09:10.512Z,100826.06
2022-11-07T13:14:41.134Z,100789.06
2022-11-07T13:19:45.886Z,100791.91
2022-11-07T13:25:11.857Z,100813.19
2022-11-07T13:30:17.586Z,100819.09
2022-11-07T13:35:31.347Z,100826.38
2022-11-07T13:40:49.158Z,100793.16
2022-11-07T13:45:56.249Z,100805.69
2022-11-07T13:51:17.764Z,100818.28
2022-11-07T13:56:33.223Z,100821.34
2022-11-07T14:01:45.951Z,100822.00
2022-11-07T14:06:50.685Z,100807.44
2022-11-07T14:11:53.960Z,100817.16
2022-11-07T14:17:00.644Z,100801.66
2022-11-07T14:22:03.040Z,100772.72
2022-11-07T14:27:09.124Z,100817.53
2022-11-07T14:32:17.754Z,100831.59
2022-11-07T14:37:25.730Z,100828.94
2022-11-07T14:42:29.572Z,100821.59
2022-11-07T14:47:35.071Z,100806.78
2022-11-07T14:52:52.511Z,100829.22
2022-11-07T14:57:55.308Z,100838.00
2022-11-07T15:02:59.080Z,100818.91
2022-11-07T15:08:01.519Z,100848.66
2022-11-07T15:13:25.686Z,100833.97
2022-11-07T15:18:29.601Z,100864.94
2022-11-07T15:23:36.408Z,100840.06
2022-11-07T15:28:54.754Z,100872.38
2022-11-07T15:33:59.383Z,100871.81
2022-11-07T15:39:01.767Z,100879.84
2022-11-07T15:44:04.132Z,100851.44
2022-11-07T15:49:11.983Z,100848.84
2022-11-07T15:54:15.217Z,100862.13
2022-11-07T15:59:21.142Z,100894.09
2022-11-07T16:04:23.469Z,100890.84
2022-11-07T16:09:31.947Z,100877.31
2022-11-07T16:14:43.919Z,100872.00
2022-11-07T16:19:47.421Z,100913.63
2022-11-07T16:24:49.672Z,100906.25
2022-11-07T16:29:51.904Z,100885.56
2022-11-07T16:34:54.269Z,100904.31
2022-11-07T16:39:56.585Z,100901.66
2022-11-07T16:44:59.772Z,100919.75
2022-11-07T16:50:02.089Z,100902.97
2022-11-07T16:55:04.718Z,100946.66
2022-11-07T17:00:07.706Z,100890.81
2022-11-07T17:05:10.168Z,100958.19
2022-11-07T17:10:17.964Z,100933.03
2022-11-07T17:15:20.327Z,100961.97
2022-11-07T17:20:49.012Z,100966.97
2022-11-07T17:25:54.243Z,100967.41
2022-11-07T17:30:56.579Z,100942.69
2022-11-07T17:35:58.870Z,100938.34
2022-11-07T17:41:17.627Z,100952.91
2022-11-07T17:46:28.280Z,100960.75
2022-11-07T17:51:31.110Z,100969.09
2022-11-07T17:56:34.828Z,100966.78
2022-11-07T18:01:38.928Z,100980.53
2022-11-07T18:06:43.474Z,100963.66
2022-11-07T18:11:45.908Z,100973.44
2022-11-07T18:16:48.126Z,100960.53
2022-11-07T18:21:50.665Z,100960.13
2022-11-07T18:26:53.710Z,100994.00
2022-11-07T18:31:56.112Z,100976.28
2022-11-07T18:36:58.328Z,100994.00
2022-11-07T18:42:00.522Z,100985.63
2022-11-07T18:47:02.825Z,100956.25
2022-11-07T18:52:05.453Z,100988.31
2022-11-07T18:57:07.796Z,100975.59
2022-11-07T19:02:10.723Z,100997.84
2022-11-07T19:07:13.159Z,100998.50
2022-11-07T19:12:15.484Z,100999.28
2022-11-07T19:17:17.749Z,100980.50
2022-11-07T19:22:19.991Z,101016.06
2022-11-07T19:27:22.353Z,101023.09
2022-11-07T19:32:24.586Z,101034.31
2022-11-07T19:37:26.785Z,101018.59
2022-11-07T19:42:29.188Z,101036.88
2022-11-07T19:47:31.449Z,101009.63
2022-11-07T19:52:34.135Z,101054.03
2022-11-07T19:57:36.361Z,101023.34
2022-11-07T20:02:44.158Z,101026.81
2022-11-07T20:07:48.012Z,101011.63
2022-11-07T20:12:54.619Z,101044.09
2022-11-07T20:17:56.870Z,101040.38
2022-11-07T20:23:00.839Z,101062.25
2022-11-07T20:28:03.037Z,101069.13
2022-11-07T20:33:05.855Z,101051.91
2022-11-07T20:38:08.213Z,101066.09
2022-11-07T20:43:12.127Z,101073.75
2022-11-07T20:48:15.224Z,101056.72
2022-11-07T20:53:17.921Z,101070.06
2022-11-07T20:58:20.345Z,101066.75
2022-11-07T21:03:22.596Z,101052.94
2022-11-07T21:08:25.102Z,101081.31
2022-11-07T21:13:27.316Z,101084.97
2022-11-07T21:18:30.487Z,101110.34
2022-11-07T21:23:33.447Z,101103.78
2022-11-07T21:28:37.328Z,101091.56
2022-11-07T21:33:39.840Z,101092.97
2022-11-07T21:38:42.238Z,101074.75
2022-11-07T21:43:44.930Z,101115.94
2022-11-07T21:48:47.834Z,101118.19
2022-11-07T21:53:50.962Z,101099.38
2022-11-07T21:58:59.246Z,101120.63
2022-11-07T22:04:13.357Z,101123.25
2022-11-07T22:09:18.181Z,101080.81
2022-11-07T22:14:22.693Z,101128.00
2022-11-07T22:19:26.220Z,101123.00
2022-11-07T22:24:56.247Z,101099.50
2022-11-07T22:29:58.788Z,101104.50
2022-11-07T22:35:08.900Z,101114.16
2022-11-07T22:40:16.555Z,101120.75
2022-11-07T22:45:22.473Z,101109.44
2022-11-07T22:50:25.524Z,101126.50
2022-11-07T22:55:28.805Z,101102.63
2022-11-07T23:00:32.544Z,101050.19
2022-11-07T23:05:35.512Z,101125.00
2022-11-07T23:10:37.842Z,101086.94
2022-11-07T23:15:40.089Z,101084.97
2022-11-07T23:21:00.917Z,101062.59
2022-11-07T23:26:04.879Z,101093.78
2022-11-07T23:31:07.970Z,101102.13
2022-11-07T23:36:15.412Z,101130.47
2022-11-07T23:41:17.732Z,101109.28
2022-11-07T23:46:38.493Z,101127.66
2022-11-07T23:51:40.957Z,101088.66
2022-11-07T23:56:44.090Z,101102.88
